sensor_id;sensor_type;location;lat;lon;timestamp;P1;durP1;ratioP1;P2;durP2;ratioP2
19521;SDS011;9905;52.126;5.596;2023-04-03T00:00:07;3.30;;;3.00;;
19521;SDS011;9905;52.126;5.596;2023-04-03T00:02:35;3.13;;;3.03;;
19521;SDS011;9905;52.126;5.596;2023-04-03T00:05:02;3.00;;;2.90;;
19521;SDS011;9905;52.126;5.596;2023-04-03T00:07:31;2.95;;;2.85;;
19521;SDS011;9905;52.126;5.596;2023-04-03T00:09:57;2.83;;;2.63;;
19521;SDS011;9905;52.126;5.596;2023-04-03T00:12:24;3.00;;;2.90;;
19521;SDS011;9905;52.126;5.596;2023-04-03T00:14:51;3.15;;;2.85;;
19521;SDS011;9905;52.126;5.596;2023-04-03T00:17:18;3.67;;;3.22;;
19521;SDS011;9905;52.126;5.596;2023-04-03T00:19:44;2.85;;;2.65;;
19521;SDS011;9905;52.126;5.596;2023-04-03T00:22:11;2.80;;;2.70;;
19521;SDS011;9905;52.126;5.596;2023-04-03T00:24:39;3.35;;;3.25;;
19521;SDS011;9905;52.126;5.596;2023-04-03T00:27:06;2.70;;;2.60;;
19521;SDS011;9905;52.126;5.596;2023-04-03T00:29:33;3.22;;;3.10;;
19521;SDS011;9905;52.126;5.596;2023-04-03T00:32:00;3.90;;;2.70;;
19521;SDS011;9905;52.126;5.596;2023-04-03T00:34:27;2.97;;;2.80;;
19521;SDS011;9905;52.126;5.596;2023-04-03T00:36:54;3.00;;;2.90;;
19521;SDS011;9905;52.126;5.596;2023-04-03T00:39:20;3.33;;;3.22;;
19521;SDS011;9905;52.126;5.596;2023-04-03T00:41:49;3.50;;;3.30;;
19521;SDS011;9905;52.126;5.596;2023-04-03T00:44:22;4.00;;;3.60;;
19521;SDS011;9905;52.126;5.596;2023-04-03T00:47:10;2.83;;;2.72;;
19521;SDS011;9905;52.126;5.596;2023-04-03T00:49:39;3.72;;;3.55;;
19521;SDS011;9905;52.126;5.596;2023-04-03T00:52:07;3.67;;;3.38;;
19521;SDS011;9905;52.126;5.596;2023-04-03T00:54:37;3.38;;;3.08;;
19521;SDS011;9905;52.126;5.596;2023-04-03T00:57:08;3.50;;;3.30;;
19521;SDS011;9905;52.126;5.596;2023-04-03T00:59:36;3.05;;;2.95;;
19521;SDS011;9905;52.126;5.596;2023-04-03T01:02:06;3.92;;;3.72;;
19521;SDS011;9905;52.126;5.596;2023-04-03T01:04:33;3.30;;;3.20;;
19521;SDS011;9905;52.126;5.596;2023-04-03T01:07:03;3.20;;;3.10;;
19521;SDS011;9905;52.126;5.596;2023-04-03T01:09:32;2.83;;;2.63;;
19521;SDS011;9905;52.126;5.596;2023-04-03T01:12:13;3.53;;;3.30;;
19521;SDS011;9905;52.126;5.596;2023-04-03T01:14:41;3.40;;;3.17;;
19521;SDS011;9905;52.126;5.596;2023-04-03T01:17:23;4.25;;;3.95;;
19521;SDS011;9905;52.126;5.596;2023-04-03T01:19:57;3.15;;;2.95;;
19521;SDS011;9905;52.126;5.596;2023-04-03T01:22:43;3.28;;;3.17;;
19521;SDS011;9905;52.126;5.596;2023-04-03T01:25:16;3.70;;;3.60;;
19521;SDS011;9905;52.126;5.596;2023-04-03T01:27:45;3.60;;;3.30;;
19521;SDS011;9905;52.126;5.596;2023-04-03T01:30:12;3.00;;;2.90;;
19521;SDS011;9905;52.126;5.596;2023-04-03T01:32:42;4.07;;;3.55;;
19521;SDS011;9905;52.126;5.596;2023-04-03T01:35:09;2.90;;;2.80;;
19521;SDS011;9905;52.126;5.596;2023-04-03T01:37:37;3.30;;;3.10;;
19521;SDS011;9905;52.126;5.596;2023-04-03T01:40:04;4.10;;;3.38;;
19521;SDS011;9905;52.126;5.596;2023-04-03T01:42:32;3.17;;;3.08;;
19521;SDS011;9905;52.126;5.596;2023-04-03T01:44:58;3.83;;;3.55;;
19521;SDS011;9905;52.126;5.596;2023-04-03T01:47:25;3.50;;;3.20;;
19521;SDS011;9905;52.126;5.596;2023-04-03T01:49:53;3.95;;;3.47;;
19521;SDS011;9905;52.126;5.596;2023-04-03T01:52:20;3.60;;;3.35;;
19521;SDS011;9905;52.126;5.596;2023-04-03T01:54:47;4.10;;;3.97;;
19521;SDS011;9905;52.126;5.596;2023-04-03T01:57:13;3.30;;;3.20;;
19521;SDS011;9905;52.126;5.596;2023-04-03T01:59:43;3.45;;;3.35;;
19521;SDS011;9905;52.126;5.596;2023-04-03T02:02:10;4.03;;;3.67;;
19521;SDS011;9905;52.126;5.596;2023-04-03T02:04:39;3.28;;;3.17;;
19521;SDS011;9905;52.126;5.596;2023-04-03T02:07:07;3.38;;;3.17;;
19521;SDS011;9905;52.126;5.596;2023-04-03T02:09:34;3.63;;;3.40;;
19521;SDS011;9905;52.126;5.596;2023-04-03T02:12:01;3.85;;;3.70;;
19521;SDS011;9905;52.126;5.596;2023-04-03T02:14:28;3.40;;;3.20;;
19521;SDS011;9905;52.126;5.596;2023-04-03T02:16:54;3.97;;;3.67;;
19521;SDS011;9905;52.126;5.596;2023-04-03T02:19:21;3.67;;;3.38;;
19521;SDS011;9905;52.126;5.596;2023-04-03T02:21:48;3.88;;;3.58;;
19521;SDS011;9905;52.126;5.596;2023-04-03T02:24:16;3.53;;;3.33;;
19521;SDS011;9905;52.126;5.596;2023-04-03T02:26:43;4.28;;;4.00;;
19521;SDS011;9905;52.126;5.596;2023-04-03T02:29:10;4.13;;;3.92;;
19521;SDS011;9905;52.126;5.596;2023-04-03T02:31:36;4.20;;;3.80;;
19521;SDS011;9905;52.126;5.596;2023-04-03T02:34:03;3.90;;;3.70;;
19521;SDS011;9905;52.126;5.596;2023-04-03T02:36:30;4.25;;;3.85;;
19521;SDS011;9905;52.126;5.596;2023-04-03T02:38:57;4.13;;;3.92;;
19521;SDS011;9905;52.126;5.596;2023-04-03T02:41:25;3.97;;;3.88;;
19521;SDS011;9905;52.126;5.596;2023-04-03T02:43:58;3.42;;;3.33;;
19521;SDS011;9905;52.126;5.596;2023-04-03T02:46:25;3.92;;;3.63;;
19521;SDS011;9905;52.126;5.596;2023-04-03T02:48:52;3.88;;;3.63;;
19521;SDS011;9905;52.126;5.596;2023-04-03T02:51:18;4.78;;;4.38;;
19521;SDS011;9905;52.126;5.596;2023-04-03T02:53:45;4.20;;;4.00;;
19521;SDS011;9905;52.126;5.596;2023-04-03T02:56:12;3.58;;;3.33;;
19521;SDS011;9905;52.126;5.596;2023-04-03T02:58:40;3.97;;;3.80;;
19521;SDS011;9905;52.126;5.596;2023-04-03T03:01:07;5.78;;;3.63;;
19521;SDS011;9905;52.126;5.596;2023-04-03T03:03:33;4.13;;;3.92;;
19521;SDS011;9905;52.126;5.596;2023-04-03T03:06:01;3.83;;;3.72;;
19521;SDS011;9905;52.126;5.596;2023-04-03T03:08:28;4.30;;;3.92;;
19521;SDS011;9905;52.126;5.596;2023-04-03T03:10:55;4.00;;;3.70;;
19521;SDS011;9905;52.126;5.596;2023-04-03T03:13:22;3.70;;;3.60;;
19521;SDS011;9905;52.126;5.596;2023-04-03T03:15:50;4.65;;;3.88;;
19521;SDS011;9905;52.126;5.596;2023-04-03T03:18:18;3.95;;;3.65;;
19521;SDS011;9905;52.126;5.596;2023-04-03T03:20:45;3.50;;;3.40;;
19521;SDS011;9905;52.126;5.596;2023-04-03T03:23:12;4.00;;;3.80;;
19521;SDS011;9905;52.126;5.596;2023-04-03T03:25:39;3.83;;;3.63;;
19521;SDS011;9905;52.126;5.596;2023-04-03T03:28:06;4.38;;;4.10;;
19521;SDS011;9905;52.126;5.596;2023-04-03T03:30:33;5.15;;;4.78;;
19521;SDS011;9905;52.126;5.596;2023-04-03T03:33:01;4.03;;;3.83;;
19521;SDS011;9905;52.126;5.596;2023-04-03T03:35:28;3.58;;;3.45;;
19521;SDS011;9905;52.126;5.596;2023-04-03T03:37:55;4.57;;;4.35;;
19521;SDS011;9905;52.126;5.596;2023-04-03T03:40:22;4.55;;;4.25;;
19521;SDS011;9905;52.126;5.596;2023-04-03T03:42:49;5.00;;;4.18;;
19521;SDS011;9905;52.126;5.596;2023-04-03T03:45:15;3.70;;;3.60;;
19521;SDS011;9905;52.126;5.596;2023-04-03T03:47:42;4.75;;;4.28;;
19521;SDS011;9905;52.126;5.596;2023-04-03T03:50:10;4.00;;;3.83;;
19521;SDS011;9905;52.126;5.596;2023-04-03T03:52:37;4.28;;;3.97;;
19521;SDS011;9905;52.126;5.596;2023-04-03T03:55:04;4.00;;;3.80;;
19521;SDS011;9905;52.126;5.596;2023-04-03T03:57:31;3.97;;;3.88;;
19521;SDS011;9905;52.126;5.596;2023-04-03T03:59:58;4.40;;;4.20;;
19521;SDS011;9905;52.126;5.596;2023-04-03T04:02:25;4.63;;;4.10;;
19521;SDS011;9905;52.126;5.596;2023-04-03T04:04:51;4.78;;;4.38;;
19521;SDS011;9905;52.126;5.596;2023-04-03T04:07:20;4.55;;;4.45;;
19521;SDS011;9905;52.126;5.596;2023-04-03T04:09:46;5.07;;;4.78;;
19521;SDS011;9905;52.126;5.596;2023-04-03T04:12:14;4.78;;;4.22;;
19521;SDS011;9905;52.126;5.596;2023-04-03T04:14:41;5.40;;;3.90;;
19521;SDS011;9905;52.126;5.596;2023-04-03T04:17:11;4.50;;;4.30;;
19521;SDS011;9905;52.126;5.596;2023-04-03T04:19:38;4.55;;;4.15;;
19521;SDS011;9905;52.126;5.596;2023-04-03T04:22:05;4.40;;;4.20;;
19521;SDS011;9905;52.126;5.596;2023-04-03T04:24:33;5.32;;;5.10;;
19521;SDS011;9905;52.126;5.596;2023-04-03T04:27:00;4.88;;;4.50;;
19521;SDS011;9905;52.126;5.596;2023-04-03T04:29:26;5.03;;;4.70;;
19521;SDS011;9905;52.126;5.596;2023-04-03T04:31:53;4.75;;;4.38;;
19521;SDS011;9905;52.126;5.596;2023-04-03T04:34:20;5.45;;;5.07;;
19521;SDS011;9905;52.126;5.596;2023-04-03T04:36:46;5.10;;;4.88;;
19521;SDS011;9905;52.126;5.596;2023-04-03T04:39:13;5.13;;;4.85;;
19521;SDS011;9905;52.126;5.596;2023-04-03T04:41:41;5.63;;;5.30;;
19521;SDS011;9905;52.126;5.596;2023-04-03T04:44:08;4.90;;;4.57;;
19521;SDS011;9905;52.126;5.596;2023-04-03T04:46:35;4.35;;;4.25;;
19521;SDS011;9905;52.126;5.596;2023-04-03T04:49:02;4.80;;;4.53;;
19521;SDS011;9905;52.126;5.596;2023-04-03T04:51:28;5.45;;;5.00;;
19521;SDS011;9905;52.126;5.596;2023-04-03T04:53:55;5.45;;;5.07;;
19521;SDS011;9905;52.126;5.596;2023-04-03T04:56:22;4.95;;;4.75;;
19521;SDS011;9905;52.126;5.596;2023-04-03T04:58:50;4.95;;;4.65;;
19521;SDS011;9905;52.126;5.596;2023-04-03T05:01:17;5.28;;;4.85;;
19521;SDS011;9905;52.126;5.596;2023-04-03T05:03:44;5.50;;;5.10;;
19521;SDS011;9905;52.126;5.596;2023-04-03T05:06:11;4.30;;;4.00;;
19521;SDS011;9905;52.126;5.596;2023-04-03T05:08:37;4.82;;;4.38;;
19521;SDS011;9905;52.126;5.596;2023-04-03T05:11:04;5.67;;;4.87;;
19521;SDS011;9905;52.126;5.596;2023-04-03T05:13:31;5.27;;;5.07;;
19521;SDS011;9905;52.126;5.596;2023-04-03T05:15:59;6.60;;;5.75;;
19521;SDS011;9905;52.126;5.596;2023-04-03T05:18:26;5.03;;;4.73;;
19521;SDS011;9905;52.126;5.596;2023-04-03T05:20:52;4.95;;;4.57;;
19521;SDS011;9905;52.126;5.596;2023-04-03T05:23:19;6.13;;;5.57;;
19521;SDS011;9905;52.126;5.596;2023-04-03T05:25:46;5.55;;;5.15;;
19521;SDS011;9905;52.126;5.596;2023-04-03T05:28:13;4.90;;;4.70;;
19521;SDS011;9905;52.126;5.596;2023-04-03T05:30:40;5.17;;;4.97;;
19521;SDS011;9905;52.126;5.596;2023-04-03T05:33:08;5.10;;;4.80;;
19521;SDS011;9905;52.126;5.596;2023-04-03T05:35:35;4.82;;;4.50;;
19521;SDS011;9905;52.126;5.596;2023-04-03T05:38:04;5.17;;;4.97;;
19521;SDS011;9905;52.126;5.596;2023-04-03T05:40:31;5.10;;;4.72;;
19521;SDS011;9905;52.126;5.596;2023-04-03T05:42:57;5.53;;;5.13;;
19521;SDS011;9905;52.126;5.596;2023-04-03T05:45:24;5.20;;;4.80;;
19521;SDS011;9905;52.126;5.596;2023-04-03T05:47:51;6.53;;;6.03;;
19521;SDS011;9905;52.126;5.596;2023-04-03T05:50:19;5.85;;;5.35;;
19521;SDS011;9905;52.126;5.596;2023-04-03T05:52:46;5.80;;;5.47;;
19521;SDS011;9905;52.126;5.596;2023-04-03T05:55:16;5.40;;;5.20;;
19521;SDS011;9905;52.126;5.596;2023-04-03T05:57:43;4.88;;;4.68;;
19521;SDS011;9905;52.126;5.596;2023-04-03T06:00:11;5.78;;;5.28;;
19521;SDS011;9905;52.126;5.596;2023-04-03T06:02:40;5.13;;;4.90;;
19521;SDS011;9905;52.126;5.596;2023-04-03T06:05:07;5.43;;;5.13;;
19521;SDS011;9905;52.126;5.596;2023-04-03T06:07:37;5.90;;;5.38;;
19521;SDS011;9905;52.126;5.596;2023-04-03T06:10:05;6.20;;;5.90;;
19521;SDS011;9905;52.126;5.596;2023-04-03T06:12:33;7.55;;;5.88;;
19521;SDS011;9905;52.126;5.596;2023-04-03T06:15:00;5.10;;;4.80;;
19521;SDS011;9905;52.126;5.596;2023-04-03T06:17:27;4.82;;;4.63;;
19521;SDS011;9905;52.126;5.596;2023-04-03T06:19:54;5.68;;;5.18;;
19521;SDS011;9905;52.126;5.596;2023-04-03T06:22:23;5.53;;;5.03;;
19521;SDS011;9905;52.126;5.596;2023-04-03T06:24:52;8.02;;;5.20;;
19521;SDS011;9905;52.126;5.596;2023-04-03T06:27:19;5.23;;;5.03;;
19521;SDS011;9905;52.126;5.596;2023-04-03T06:29:46;5.45;;;4.82;;
19521;SDS011;9905;52.126;5.596;2023-04-03T06:32:13;5.47;;;5.18;;
19521;SDS011;9905;52.126;5.596;2023-04-03T06:34:41;6.85;;;4.82;;
19521;SDS011;9905;52.126;5.596;2023-04-03T06:37:10;4.87;;;4.63;;
19521;SDS011;9905;52.126;5.596;2023-04-03T06:39:39;4.70;;;4.50;;
19521;SDS011;9905;52.126;5.596;2023-04-03T06:42:08;4.80;;;4.60;;
19521;SDS011;9905;52.126;5.596;2023-04-03T06:44:35;5.00;;;4.70;;
19521;SDS011;9905;52.126;5.596;2023-04-03T06:47:02;5.10;;;4.70;;
19521;SDS011;9905;52.126;5.596;2023-04-03T06:49:29;5.27;;;4.97;;
19521;SDS011;9905;52.126;5.596;2023-04-03T06:51:55;5.22;;;4.93;;
19521;SDS011;9905;52.126;5.596;2023-04-03T06:54:22;5.00;;;4.73;;
19521;SDS011;9905;52.126;5.596;2023-04-03T06:56:49;4.63;;;4.40;;
19521;SDS011;9905;52.126;5.596;2023-04-03T06:59:17;5.23;;;4.83;;
19521;SDS011;9905;52.126;5.596;2023-04-03T07:01:44;5.03;;;4.65;;
19521;SDS011;9905;52.126;5.596;2023-04-03T07:04:12;5.22;;;4.88;;
19521;SDS011;9905;52.126;5.596;2023-04-03T07:06:39;5.00;;;4.68;;
19521;SDS011;9905;52.126;5.596;2023-04-03T07:09:06;4.45;;;4.25;;
19521;SDS011;9905;52.126;5.596;2023-04-03T07:11:34;5.30;;;4.88;;
19521;SDS011;9905;52.126;5.596;2023-04-03T07:14:01;5.00;;;4.60;;
19521;SDS011;9905;52.126;5.596;2023-04-03T07:16:29;4.80;;;4.60;;
19521;SDS011;9905;52.126;5.596;2023-04-03T07:18:56;4.80;;;4.03;;
19521;SDS011;9905;52.126;5.596;2023-04-03T07:21:23;4.60;;;4.20;;
19521;SDS011;9905;52.126;5.596;2023-04-03T07:23:50;5.10;;;4.80;;
19521;SDS011;9905;52.126;5.596;2023-04-03T07:26:17;4.70;;;4.30;;
19521;SDS011;9905;52.126;5.596;2023-04-03T07:28:45;4.35;;;4.00;;
19521;SDS011;9905;52.126;5.596;2023-04-03T07:31:13;5.80;;;4.35;;
19521;SDS011;9905;52.126;5.596;2023-04-03T07:33:43;4.13;;;3.83;;
19521;SDS011;9905;52.126;5.596;2023-04-03T07:36:11;3.58;;;3.40;;
19521;SDS011;9905;52.126;5.596;2023-04-03T07:38:42;3.58;;;3.45;;
19521;SDS011;9905;52.126;5.596;2023-04-03T07:41:11;3.80;;;3.60;;
19521;SDS011;9905;52.126;5.596;2023-04-03T07:43:40;3.90;;;3.70;;
19521;SDS011;9905;52.126;5.596;2023-04-03T07:46:07;3.47;;;3.28;;
19521;SDS011;9905;52.126;5.596;2023-04-03T07:48:35;4.18;;;3.78;;
19521;SDS011;9905;52.126;5.596;2023-04-03T07:51:04;3.80;;;3.60;;
19521;SDS011;9905;52.126;5.596;2023-04-03T07:53:31;3.47;;;3.28;;
19521;SDS011;9905;52.126;5.596;2023-04-03T07:55:58;3.42;;;3.33;;
19521;SDS011;9905;52.126;5.596;2023-04-03T07:58:27;3.60;;;3.30;;
19521;SDS011;9905;52.126;5.596;2023-04-03T08:00:54;3.45;;;3.25;;
19521;SDS011;9905;52.126;5.596;2023-04-03T08:03:21;3.30;;;3.10;;
19521;SDS011;9905;52.126;5.596;2023-04-03T08:05:48;3.33;;;3.22;;
19521;SDS011;9905;52.126;5.596;2023-04-03T08:08:18;3.13;;;3.00;;
19521;SDS011;9905;52.126;5.596;2023-04-03T08:10:47;3.67;;;3.38;;
19521;SDS011;9905;52.126;5.596;2023-04-03T08:13:16;2.95;;;2.92;;
19521;SDS011;9905;52.126;5.596;2023-04-03T08:15:42;3.30;;;3.20;;
19521;SDS011;9905;52.126;5.596;2023-04-03T08:18:09;3.50;;;3.30;;
19521;SDS011;9905;52.126;5.596;2023-04-03T08:20:37;3.30;;;3.20;;
19521;SDS011;9905;52.126;5.596;2023-04-03T08:23:05;3.35;;;3.15;;
19521;SDS011;9905;52.126;5.596;2023-04-03T08:25:33;3.53;;;3.28;;
19521;SDS011;9905;52.126;5.596;2023-04-03T08:28:00;3.30;;;3.10;;
19521;SDS011;9905;52.126;5.596;2023-04-03T08:30:27;3.00;;;2.90;;
19521;SDS011;9905;52.126;5.596;2023-04-03T08:32:54;3.47;;;3.25;;
19521;SDS011;9905;52.126;5.596;2023-04-03T08:35:20;2.50;;;2.50;;
19521;SDS011;9905;52.126;5.596;2023-04-03T08:37:47;2.58;;;2.55;;
19521;SDS011;9905;52.126;5.596;2023-04-03T08:40:15;2.67;;;2.50;;
19521;SDS011;9905;52.126;5.596;2023-04-03T08:42:47;2.75;;;2.58;;
19521;SDS011;9905;52.126;5.596;2023-04-03T08:45:21;2.47;;;2.38;;
19521;SDS011;9905;52.126;5.596;2023-04-03T08:47:55;2.63;;;2.42;;
19521;SDS011;9905;52.126;5.596;2023-04-03T08:50:27;2.55;;;2.45;;
19521;SDS011;9905;52.126;5.596;2023-04-03T08:52:57;2.33;;;2.22;;
19521;SDS011;9905;52.126;5.596;2023-04-03T08:55:25;2.60;;;2.40;;
19521;SDS011;9905;52.126;5.596;2023-04-03T08:57:59;2.22;;;2.17;;
19521;SDS011;9905;52.126;5.596;2023-04-03T09:00:28;2.10;;;2.00;;
19521;SDS011;9905;52.126;5.596;2023-04-03T09:02:58;2.28;;;2.15;;
19521;SDS011;9905;52.126;5.596;2023-04-03T09:05:29;1.90;;;1.80;;
19521;SDS011;9905;52.126;5.596;2023-04-03T09:08:04;2.15;;;1.88;;
19521;SDS011;9905;52.126;5.596;2023-04-03T09:10:38;2.17;;;2.03;;
19521;SDS011;9905;52.126;5.596;2023-04-03T09:13:08;2.28;;;2.00;;
19521;SDS011;9905;52.126;5.596;2023-04-03T09:15:43;1.70;;;1.70;;
19521;SDS011;9905;52.126;5.596;2023-04-03T09:18:12;2.00;;;1.90;;
19521;SDS011;9905;52.126;5.596;2023-04-03T09:20:44;1.73;;;1.60;;
19521;SDS011;9905;52.126;5.596;2023-04-03T09:23:18;2.35;;;2.00;;
19521;SDS011;9905;52.126;5.596;2023-04-03T09:25:51;1.70;;;1.70;;
19521;SDS011;9905;52.126;5.596;2023-04-03T09:28:24;2.05;;;1.92;;
19521;SDS011;9905;52.126;5.596;2023-04-03T09:30:51;2.10;;;2.00;;
19521;SDS011;9905;52.126;5.596;2023-04-03T09:33:18;1.70;;;1.70;;
19521;SDS011;9905;52.126;5.596;2023-04-03T09:35:47;1.77;;;1.77;;
19521;SDS011;9905;52.126;5.596;2023-04-03T09:38:18;1.50;;;1.50;;
19521;SDS011;9905;52.126;5.596;2023-04-03T09:40:47;2.00;;;1.90;;
19521;SDS011;9905;52.126;5.596;2023-04-03T09:43:23;2.10;;;2.00;;
19521;SDS011;9905;52.126;5.596;2023-04-03T09:45:54;1.70;;;1.70;;
19521;SDS011;9905;52.126;5.596;2023-04-03T09:48:22;1.60;;;1.60;;
19521;SDS011;9905;52.126;5.596;2023-04-03T09:50:57;1.63;;;1.63;;
19521;SDS011;9905;52.126;5.596;2023-04-03T09:53:27;1.95;;;1.90;;
19521;SDS011;9905;52.126;5.596;2023-04-03T09:56:00;1.80;;;1.70;;
19521;SDS011;9905;52.126;5.596;2023-04-03T09:58:30;1.70;;;1.70;;
19521;SDS011;9905;52.126;5.596;2023-04-03T10:01:00;1.70;;;1.60;;
19521;SDS011;9905;52.126;5.596;2023-04-03T10:03:29;1.40;;;1.40;;
19521;SDS011;9905;52.126;5.596;2023-04-03T10:05:57;1.80;;;1.77;;
19521;SDS011;9905;52.126;5.596;2023-04-03T10:08:26;1.80;;;1.60;;
19521;SDS011;9905;52.126;5.596;2023-04-03T10:11:09;2.00;;;1.73;;
19521;SDS011;9905;52.126;5.596;2023-04-03T10:13:53;1.80;;;1.70;;
19521;SDS011;9905;52.126;5.596;2023-04-03T10:16:23;2.03;;;2.00;;
19521;SDS011;9905;52.126;5.596;2023-04-03T10:18:56;1.80;;;1.80;;
19521;SDS011;9905;52.126;5.596;2023-04-03T10:21:34;1.70;;;1.70;;
19521;SDS011;9905;52.126;5.596;2023-04-03T10:24:07;1.65;;;1.65;;
19521;SDS011;9905;52.126;5.596;2023-04-03T10:26:39;1.50;;;1.50;;
19521;SDS011;9905;52.126;5.596;2023-04-03T10:29:15;1.92;;;1.83;;
19521;SDS011;9905;52.126;5.596;2023-04-03T10:31:55;1.65;;;1.65;;
19521;SDS011;9905;52.126;5.596;2023-04-03T10:34:28;1.50;;;1.50;;
19521;SDS011;9905;52.126;5.596;2023-04-03T10:36:59;1.55;;;1.52;;
19521;SDS011;9905;52.126;5.596;2023-04-03T10:39:34;1.88;;;1.88;;
19521;SDS011;9905;52.126;5.596;2023-04-03T10:42:04;1.80;;;1.70;;
19521;SDS011;9905;52.126;5.596;2023-04-03T10:44:40;1.60;;;1.60;;
19521;SDS011;9905;52.126;5.596;2023-04-03T10:47:27;2.08;;;1.98;;
19521;SDS011;9905;52.126;5.596;2023-04-03T10:50:01;2.42;;;1.50;;
19521;SDS011;9905;52.126;5.596;2023-04-03T10:52:42;2.00;;;2.00;;
19521;SDS011;9905;52.126;5.596;2023-04-03T10:55:20;1.83;;;1.73;;
19521;SDS011;9905;52.126;5.596;2023-04-03T10:57:55;2.40;;;2.00;;
19521;SDS011;9905;52.126;5.596;2023-04-03T11:00:26;1.75;;;1.75;;
19521;SDS011;9905;52.126;5.596;2023-04-03T11:03:00;1.58;;;1.58;;
19521;SDS011;9905;52.126;5.596;2023-04-03T11:05:31;2.13;;;2.03;;
19521;SDS011;9905;52.126;5.596;2023-04-03T11:08:02;1.83;;;1.83;;
19521;SDS011;9905;52.126;5.596;2023-04-03T11:10:36;1.83;;;1.73;;
19521;SDS011;9905;52.126;5.596;2023-04-03T11:13:07;1.73;;;1.73;;
19521;SDS011;9905;52.126;5.596;2023-04-03T11:15:40;1.50;;;1.50;;
19521;SDS011;9905;52.126;5.596;2023-04-03T11:18:09;1.63;;;1.63;;
19521;SDS011;9905;52.126;5.596;2023-04-03T11:20:40;1.80;;;1.80;;
19521;SDS011;9905;52.126;5.596;2023-04-03T11:23:13;1.80;;;1.70;;
19521;SDS011;9905;52.126;5.596;2023-04-03T11:25:45;1.60;;;1.60;;
19521;SDS011;9905;52.126;5.596;2023-04-03T11:28:17;1.70;;;1.60;;
19521;SDS011;9905;52.126;5.596;2023-04-03T11:30:46;4.35;;;1.90;;
19521;SDS011;9905;52.126;5.596;2023-04-03T11:36:03;1.77;;;1.77;;
19521;SDS011;9905;52.126;5.596;2023-04-03T11:38:34;1.60;;;1.60;;
19521;SDS011;9905;52.126;5.596;2023-04-03T11:41:06;2.05;;;1.95;;
19521;SDS011;9905;52.126;5.596;2023-04-03T11:43:39;1.67;;;1.67;;
19521;SDS011;9905;52.126;5.596;2023-04-03T11:46:09;1.80;;;1.70;;
19521;SDS011;9905;52.126;5.596;2023-04-03T11:48:48;1.83;;;1.83;;
19521;SDS011;9905;52.126;5.596;2023-04-03T11:51:40;2.83;;;1.67;;
19521;SDS011;9905;52.126;5.596;2023-04-03T12:00:51;1.98;;;1.90;;
19521;SDS011;9905;52.126;5.596;2023-04-03T12:06:49;1.70;;;1.70;;
19521;SDS011;9905;52.126;5.596;2023-04-03T12:12:38;1.65;;;1.65;;
19521;SDS011;9905;52.126;5.596;2023-04-03T12:15:17;2.00;;;1.95;;
19521;SDS011;9905;52.126;5.596;2023-04-03T12:17:49;1.70;;;1.70;;
19521;SDS011;9905;52.126;5.596;2023-04-03T12:23:26;1.60;;;1.60;;
19521;SDS011;9905;52.126;5.596;2023-04-03T12:26:03;1.88;;;1.80;;
19521;SDS011;9905;52.126;5.596;2023-04-03T12:28:38;1.85;;;1.77;;
19521;SDS011;9905;52.126;5.596;2023-04-03T12:31:08;1.85;;;1.75;;
19521;SDS011;9905;52.126;5.596;2023-04-03T12:33:38;3.22;;;1.80;;
19521;SDS011;9905;52.126;5.596;2023-04-03T12:36:23;3.28;;;1.95;;
19521;SDS011;9905;52.126;5.596;2023-04-03T12:39:03;1.80;;;1.80;;
19521;SDS011;9905;52.126;5.596;2023-04-03T12:41:49;2.00;;;1.90;;
19521;SDS011;9905;52.126;5.596;2023-04-03T12:44:25;1.90;;;1.80;;
19521;SDS011;9905;52.126;5.596;2023-04-03T12:47:02;1.83;;;1.83;;
19521;SDS011;9905;52.126;5.596;2023-04-03T12:49:45;2.20;;;1.70;;
19521;SDS011;9905;52.126;5.596;2023-04-03T12:52:17;2.03;;;1.90;;
19521;SDS011;9905;52.126;5.596;2023-04-03T12:54:48;2.97;;;1.70;;
19521;SDS011;9905;52.126;5.596;2023-04-03T12:57:17;2.03;;;1.92;;
19521;SDS011;9905;52.126;5.596;2023-04-03T12:59:45;2.10;;;1.90;;
19521;SDS011;9905;52.126;5.596;2023-04-03T13:02:19;1.80;;;1.70;;
19521;SDS011;9905;52.126;5.596;2023-04-03T13:04:48;1.80;;;1.70;;
19521;SDS011;9905;52.126;5.596;2023-04-03T13:07:20;2.05;;;1.95;;
19521;SDS011;9905;52.126;5.596;2023-04-03T13:09:58;1.92;;;1.92;;
19521;SDS011;9905;52.126;5.596;2023-04-03T13:12:26;1.83;;;1.80;;
19521;SDS011;9905;52.126;5.596;2023-04-03T13:14:53;1.92;;;1.83;;
19521;SDS011;9905;52.126;5.596;2023-04-03T13:17:23;1.90;;;1.80;;
19521;SDS011;9905;52.126;5.596;2023-04-03T13:19:50;2.30;;;2.15;;
19521;SDS011;9905;52.126;5.596;2023-04-03T13:22:23;1.75;;;1.70;;
19521;SDS011;9905;52.126;5.596;2023-04-03T13:24:56;1.70;;;1.70;;
19521;SDS011;9905;52.126;5.596;2023-04-03T13:27:28;1.88;;;1.77;;
19521;SDS011;9905;52.126;5.596;2023-04-03T13:29:57;1.70;;;1.60;;
19521;SDS011;9905;52.126;5.596;2023-04-03T13:32:26;2.67;;;1.92;;
19521;SDS011;9905;52.126;5.596;2023-04-03T13:34:55;1.90;;;1.80;;
19521;SDS011;9905;52.126;5.596;2023-04-03T13:37:24;2.20;;;2.03;;
19521;SDS011;9905;52.126;5.596;2023-04-03T13:39:57;2.22;;;1.80;;
19521;SDS011;9905;52.126;5.596;2023-04-03T13:42:30;2.00;;;1.90;;
19521;SDS011;9905;52.126;5.596;2023-04-03T13:47:49;2.08;;;1.90;;
19521;SDS011;9905;52.126;5.596;2023-04-03T13:50:18;1.92;;;1.73;;
19521;SDS011;9905;52.126;5.596;2023-04-03T13:52:47;2.00;;;1.90;;
19521;SDS011;9905;52.126;5.596;2023-04-03T13:55:18;2.20;;;2.10;;
19521;SDS011;9905;52.126;5.596;2023-04-03T13:57:49;1.80;;;1.70;;
19521;SDS011;9905;52.126;5.596;2023-04-03T14:00:21;1.92;;;1.80;;
19521;SDS011;9905;52.126;5.596;2023-04-03T14:02:57;6.32;;;2.53;;
19521;SDS011;9905;52.126;5.596;2023-04-03T14:05:24;1.90;;;1.80;;
19521;SDS011;9905;52.126;5.596;2023-04-03T14:07:51;2.00;;;1.90;;
19521;SDS011;9905;52.126;5.596;2023-04-03T14:10:20;1.90;;;1.80;;
19521;SDS011;9905;52.126;5.596;2023-04-03T14:12:48;2.10;;;2.00;;
19521;SDS011;9905;52.126;5.596;2023-04-03T14:15:17;1.90;;;1.90;;
19521;SDS011;9905;52.126;5.596;2023-04-03T14:17:46;2.22;;;2.13;;
19521;SDS011;9905;52.126;5.596;2023-04-03T14:20:14;2.13;;;1.85;;
19521;SDS011;9905;52.126;5.596;2023-04-03T14:22:42;1.88;;;1.77;;
19521;SDS011;9905;52.126;5.596;2023-04-03T14:25:09;3.08;;;1.80;;
19521;SDS011;9905;52.126;5.596;2023-04-03T14:27:38;1.80;;;1.70;;
19521;SDS011;9905;52.126;5.596;2023-04-03T14:30:07;2.13;;;2.03;;
19521;SDS011;9905;52.126;5.596;2023-04-03T14:32:38;1.88;;;1.77;;
19521;SDS011;9905;52.126;5.596;2023-04-03T14:35:05;2.40;;;2.30;;
19521;SDS011;9905;52.126;5.596;2023-04-03T14:37:32;1.98;;;1.92;;
19521;SDS011;9905;52.126;5.596;2023-04-03T14:40:01;2.13;;;2.00;;
19521;SDS011;9905;52.126;5.596;2023-04-03T14:42:30;4.05;;;2.13;;
19521;SDS011;9905;52.126;5.596;2023-04-03T14:45:00;2.05;;;1.95;;
19521;SDS011;9905;52.126;5.596;2023-04-03T14:47:29;2.95;;;1.90;;
19521;SDS011;9905;52.126;5.596;2023-04-03T14:49:56;2.08;;;1.88;;
19521;SDS011;9905;52.126;5.596;2023-04-03T14:52:24;2.05;;;1.90;;
19521;SDS011;9905;52.126;5.596;2023-04-03T14:54:53;2.10;;;1.90;;
19521;SDS011;9905;52.126;5.596;2023-04-03T14:57:20;2.40;;;2.20;;
19521;SDS011;9905;52.126;5.596;2023-04-03T14:59:50;2.10;;;2.00;;
19521;SDS011;9905;52.126;5.596;2023-04-03T15:02:24;1.70;;;1.60;;
19521;SDS011;9905;52.126;5.596;2023-04-03T15:04:55;2.08;;;1.92;;
19521;SDS011;9905;52.126;5.596;2023-04-03T15:07:22;2.58;;;2.38;;
19521;SDS011;9905;52.126;5.596;2023-04-03T15:09:51;2.20;;;2.10;;
19521;SDS011;9905;52.126;5.596;2023-04-03T15:12:18;2.67;;;2.47;;
19521;SDS011;9905;52.126;5.596;2023-04-03T15:14:44;2.50;;;2.15;;
19521;SDS011;9905;52.126;5.596;2023-04-03T15:17:13;2.17;;;2.08;;
19521;SDS011;9905;52.126;5.596;2023-04-03T15:19:44;1.90;;;1.80;;
19521;SDS011;9905;52.126;5.596;2023-04-03T15:22:12;2.65;;;2.45;;
19521;SDS011;9905;52.126;5.596;2023-04-03T15:24:40;1.80;;;1.70;;
19521;SDS011;9905;52.126;5.596;2023-04-03T15:27:07;2.00;;;1.90;;
19521;SDS011;9905;52.126;5.596;2023-04-03T15:29:34;1.98;;;1.88;;
19521;SDS011;9905;52.126;5.596;2023-04-03T15:32:01;1.83;;;1.80;;
19521;SDS011;9905;52.126;5.596;2023-04-03T15:34:27;2.13;;;1.92;;